Time;durP1;ratioP1;P1;durP2;ratioP2;P2;SDS_P1;SDS_P2;PMS_P1;PMS_P2;Temp;Humidity;BMP_temperature;BMP_pressure;BME280_temperature;BME280_humidity;BME280_pressure;Samples;Min_cycle;Max_cycle;Signal;HPM_P1;HPM_P2
2023/04/14 00:01:17;;;;;;;1.47;0.70;;;;;;;;;;5048786;28;20231;-57
2023/04/14 00:03:44;;;;;;;2.30;0.40;;;;;;;;;;5049996;28;20563;-57
2023/04/14 00:06:11;;;;;;;0.70;0.70;;;;;;;;;;5049670;28;20369;-57
2023/04/14 00:08:40;;;;;;;0.93;0.77;;;;;;;;;;5061302;28;20623;-57
2023/04/14 00:11:06;;;;;;;0.43;0.43;;;;;;;;;;5065675;28;20314;-57
2023/04/14 00:13:34;;;;;;;2.83;1.00;;;;;;;;;;5064090;28;20254;-57
2023/04/14 00:16:01;;;;;;;1.10;0.60;;;;;;;;;;5054804;28;20223;-57
2023/04/14 00:18:28;;;;;;;1.30;0.80;;;;;;;;;;5053889;28;20218;-57
2023/04/14 00:20:55;;;;;;;0.43;0.43;;;;;;;;;;5052961;28;20203;-57
2023/04/14 00:23:22;;;;;;;0.70;0.70;;;;;;;;;;5049122;28;20235;-57
2023/04/14 00:25:51;;;;;;;0.50;0.50;;;;;;;;;;5054406;28;20207;-57
2023/04/14 00:28:18;;;;;;;0.77;0.70;;;;;;;;;;5069142;28;20203;-57
2023/04/14 00:30:45;;;;;;;5.93;0.80;;;;;;;;;;5054638;28;20571;-56
2023/04/14 00:33:12;;;;;;;0.60;0.60;;;;;;;;;;5064411;28;20214;-57
2023/04/14 00:35:39;;;;;;;0.93;0.63;;;;;;;;;;5069072;28;20214;-57
2023/04/14 00:38:06;;;;;;;0.60;0.60;;;;;;;;;;5054353;28;20218;-57
2023/04/14 00:40:33;;;;;;;2.10;0.63;;;;;;;;;;5058077;28;20295;-57
2023/04/14 00:43:01;;;;;;;0.50;0.47;;;;;;;;;;5052171;28;20207;-57
2023/04/14 00:45:28;;;;;;;1.50;0.70;;;;;;;;;;5056161;28;20301;-57
2023/04/14 00:47:56;;;;;;;1.90;0.70;;;;;;;;;;5052509;28;20212;-56
2023/04/14 00:50:23;;;;;;;5.70;0.97;;;;;;;;;;5063207;28;20213;-57
2023/04/14 00:52:51;;;;;;;1.30;0.67;;;;;;;;;;5062801;28;20262;-56
2023/04/14 00:55:19;;;;;;;2.40;0.67;;;;;;;;;;5058682;28;20670;-57
2023/04/14 00:57:46;;;;;;;0.70;0.70;;;;;;;;;;5051214;28;20204;-57
2023/04/14 01:00:15;;;;;;;0.80;0.53;;;;;;;;;;5048378;28;20227;-57
2023/04/14 01:02:42;;;;;;;4.80;0.70;;;;;;;;;;5046532;28;20299;-57
2023/04/14 01:05:09;;;;;;;1.57;1.27;;;;;;;;;;5047152;28;20300;-57
2023/04/14 01:07:36;;;;;;;2.30;0.70;;;;;;;;;;5045210;28;20211;-57
2023/04/14 01:10:04;;;;;;;0.50;0.50;;;;;;;;;;5049776;28;20664;-57
2023/04/14 01:12:37;;;;;;;0.70;0.70;;;;;;;;;;5049339;28;20205;-56
2023/04/14 01:15:08;;;;;;;0.50;0.50;;;;;;;;;;5049407;28;20208;-56
2023/04/14 01:17:38;;;;;;;1.73;0.83;;;;;;;;;;5050852;28;20328;-56
2023/04/14 01:20:10;;;;;;;1.40;0.70;;;;;;;;;;5065550;28;20232;-56
2023/04/14 01:22:39;;;;;;;1.43;1.30;;;;;;;;;;5066530;28;20228;-56
2023/04/14 01:25:26;;;;;;;1.00;0.70;;;;;;;;;;5068482;28;20208;-57
2023/04/14 01:28:00;;;;;;;1.13;0.63;;;;;;;;;;5043616;28;20221;-56
2023/04/14 01:30:35;;;;;;;0.70;0.70;;;;;;;;;;5051104;28;20299;-56
2023/04/14 01:33:06;;;;;;;0.90;0.90;;;;;;;;;;5048585;28;20264;-56
2023/04/14 01:35:34;;;;;;;2.23;1.57;;;;;;;;;;5049746;28;20213;-56
2023/04/14 01:38:04;;;;;;;1.73;1.50;;;;;;;;;;5061074;28;20549;-56
2023/04/14 01:40:33;;;;;;;2.23;1.70;;;;;;;;;;5057457;28;20252;-56
2023/04/14 01:43:02;;;;;;;2.00;1.90;;;;;;;;;;5059098;28;20241;-56
2023/04/14 01:45:32;;;;;;;2.10;1.90;;;;;;;;;;5055919;28;20648;-56
2023/04/14 01:48:00;;;;;;;4.27;2.30;;;;;;;;;;5050526;28;20200;-56
2023/04/14 01:50:29;;;;;;;2.80;2.20;;;;;;;;;;5064036;28;20708;-56
2023/04/14 01:52:56;;;;;;;4.40;1.90;;;;;;;;;;5063926;28;20667;-57
2023/04/14 01:55:24;;;;;;;1.77;1.67;;;;;;;;;;5065184;28;20205;-56
2023/04/14 01:57:56;;;;;;;1.03;1.03;;;;;;;;;;5068644;28;20198;-56
2023/04/14 02:00:24;;;;;;;1.40;1.40;;;;;;;;;;5067454;28;20596;-56
2023/04/14 02:02:52;;;;;;;2.57;1.37;;;;;;;;;;5046622;28;20238;-56
2023/04/14 02:05:20;;;;;;;2.00;1.50;;;;;;;;;;5047909;28;20201;-56
2023/04/14 02:07:50;;;;;;;3.47;1.70;;;;;;;;;;5048616;28;20200;-56
2023/04/14 02:10:19;;;;;;;1.73;1.60;;;;;;;;;;5048554;28;20608;-56
2023/04/14 02:12:47;;;;;;;3.00;2.10;;;;;;;;;;5046138;28;20591;-56
2023/04/14 02:15:16;;;;;;;2.03;1.43;;;;;;;;;;5046026;28;20236;-56
2023/04/14 02:17:44;;;;;;;1.20;1.10;;;;;;;;;;5048393;28;20212;-56
2023/04/14 02:20:13;;;;;;;2.33;1.10;;;;;;;;;;5048314;28;20744;-56
2023/04/14 02:22:40;;;;;;;1.50;0.83;;;;;;;;;;5050036;28;20714;-56
2023/04/14 02:25:09;;;;;;;1.07;1.00;;;;;;;;;;5062012;28;20203;-56
2023/04/14 02:27:37;;;;;;;1.13;1.00;;;;;;;;;;5066758;28;20203;-56
2023/04/14 02:30:08;;;;;;;1.43;1.33;;;;;;;;;;5065148;28;20618;-56
2023/04/14 02:32:35;;;;;;;1.67;1.67;;;;;;;;;;5064107;28;20207;-57
2023/04/14 02:35:07;;;;;;;1.80;1.70;;;;;;;;;;5064626;28;20234;-56
2023/04/14 02:37:36;;;;;;;1.17;1.17;;;;;;;;;;5061497;28;20528;-56
2023/04/14 02:40:08;;;;;;;1.23;1.13;;;;;;;;;;5047755;28;20623;-56
2023/04/14 02:42:37;;;;;;;4.50;1.57;;;;;;;;;;5063233;28;20203;-56
2023/04/14 02:45:07;;;;;;;1.40;1.40;;;;;;;;;;5063835;28;20209;-56
2023/04/14 02:47:36;;;;;;;1.90;1.40;;;;;;;;;;5056921;28;20237;-56
2023/04/14 02:50:04;;;;;;;3.63;1.70;;;;;;;;;;5067556;28;20624;-56
2023/04/14 02:52:32;;;;;;;1.70;1.67;;;;;;;;;;5060201;28;20211;-56
2023/04/14 02:54:59;;;;;;;3.53;2.07;;;;;;;;;;5054017;28;20218;-56
2023/04/14 02:57:26;;;;;;;1.97;1.50;;;;;;;;;;5062009;28;20571;-56
2023/04/14 02:59:56;;;;;;;1.97;1.60;;;;;;;;;;5050120;28;20230;-56
2023/04/14 03:02:23;;;;;;;2.20;1.87;;;;;;;;;;5067370;28;20268;-56
2023/04/14 03:04:52;;;;;;;4.57;1.67;;;;;;;;;;5049346;28;20208;-56
2023/04/14 03:07:20;;;;;;;4.37;1.93;;;;;;;;;;5048607;28;20904;-56
2023/04/14 03:09:48;;;;;;;2.60;1.73;;;;;;;;;;5053390;28;20311;-56
2023/04/14 03:12:16;;;;;;;2.13;2.03;;;;;;;;;;5052385;28;20207;-56
2023/04/14 03:14:43;;;;;;;2.00;1.77;;;;;;;;;;5057528;28;20610;-56
2023/04/14 03:17:13;;;;;;;2.80;1.63;;;;;;;;;;5062865;28;20214;-56
2023/04/14 03:19:41;;;;;;;1.60;1.50;;;;;;;;;;5058238;28;20220;-56
2023/04/14 03:22:09;;;;;;;1.90;1.80;;;;;;;;;;5050977;28;20223;-56
2023/04/14 03:24:36;;;;;;;2.07;1.60;;;;;;;;;;5065513;28;20215;-56
2023/04/14 03:27:05;;;;;;;1.90;1.57;;;;;;;;;;5062470;28;20212;-56
2023/04/14 03:29:34;;;;;;;1.80;1.27;;;;;;;;;;5047125;28;20199;-56
2023/04/14 03:32:05;;;;;;;4.10;1.87;;;;;;;;;;5044982;28;20239;-56
2023/04/14 03:34:34;;;;;;;2.27;2.07;;;;;;;;;;5045443;28;20210;-57
2023/04/14 03:37:01;;;;;;;4.97;2.60;;;;;;;;;;5045007;28;20211;-56
2023/04/14 03:39:30;;;;;;;2.50;2.40;;;;;;;;;;5046587;28;20244;-56
2023/04/14 03:41:58;;;;;;;2.67;2.17;;;;;;;;;;5046997;28;20204;-56
2023/04/14 03:44:27;;;;;;;9.67;2.13;;;;;;;;;;5045398;28;20208;-56
2023/04/14 03:46:55;;;;;;;2.07;1.97;;;;;;;;;;5059642;28;20828;-56
2023/04/14 03:49:23;;;;;;;2.33;2.20;;;;;;;;;;5052727;28;20537;-56
2023/04/14 03:51:53;;;;;;;1.97;1.87;;;;;;;;;;5054352;28;20234;-56
2023/04/14 03:54:21;;;;;;;3.00;2.70;;;;;;;;;;5063635;28;20685;-56
2023/04/14 03:56:50;;;;;;;2.83;2.27;;;;;;;;;;5059283;28;20219;-56
2023/04/14 03:59:19;;;;;;;2.87;2.07;;;;;;;;;;5052500;28;20692;-56
2023/04/14 04:01:47;;;;;;;1.60;1.50;;;;;;;;;;5048782;28;20211;-56
2023/04/14 04:04:14;;;;;;;1.83;1.30;;;;;;;;;;5067603;28;20206;-56
2023/04/14 04:06:42;;;;;;;4.03;1.40;;;;;;;;;;5059268;28;20203;-56
2023/04/14 04:09:13;;;;;;;2.70;1.40;;;;;;;;;;5064328;28;20208;-56
2023/04/14 04:11:40;;;;;;;5.97;1.57;;;;;;;;;;5050507;28;20310;-56
2023/04/14 04:14:14;;;;;;;1.80;1.20;;;;;;;;;;5056859;28;20207;-56
2023/04/14 04:16:42;;;;;;;2.37;1.83;;;;;;;;;;5057725;28;20203;-56
2023/04/14 04:19:09;;;;;;;0.70;0.70;;;;;;;;;;5050586;28;20212;-56
2023/04/14 04:21:39;;;;;;;0.90;0.83;;;;;;;;;;5050249;28;20686;-56
2023/04/14 04:24:07;;;;;;;0.93;0.93;;;;;;;;;;5050039;28;21119;-56
2023/04/14 04:26:35;;;;;;;0.97;0.97;;;;;;;;;;5060110;28;20206;-56
2023/04/14 04:29:03;;;;;;;1.03;1.00;;;;;;;;;;5060552;28;20205;-56
2023/04/14 04:31:31;;;;;;;1.43;1.33;;;;;;;;;;5061971;28;20203;-56
2023/04/14 04:33:58;;;;;;;1.50;1.23;;;;;;;;;;5062711;28;20233;-56
2023/04/14 04:36:27;;;;;;;1.10;1.10;;;;;;;;;;5048826;28;20215;-56
2023/04/14 04:38:54;;;;;;;1.60;1.17;;;;;;;;;;5053412;28;20604;-56
2023/04/14 04:41:21;;;;;;;1.50;1.40;;;;;;;;;;5049074;28;20313;-56
2023/04/14 04:43:50;;;;;;;1.53;1.50;;;;;;;;;;5047281;28;20204;-56
2023/04/14 04:46:25;;;;;;;1.57;1.40;;;;;;;;;;5047767;28;20211;-56
2023/04/14 04:48:54;;;;;;;1.00;1.00;;;;;;;;;;5049379;28;20303;-56
2023/04/14 04:51:21;;;;;;;10.10;1.27;;;;;;;;;;5061097;28;20211;-56
2023/04/14 04:53:48;;;;;;;1.33;1.10;;;;;;;;;;5051624;28;20207;-56
2023/04/14 04:56:15;;;;;;;2.20;2.00;;;;;;;;;;5062270;28;20199;-56
2023/04/14 04:58:42;;;;;;;4.90;1.30;;;;;;;;;;5055319;28;20775;-56
2023/04/14 05:01:11;;;;;;;1.63;1.53;;;;;;;;;;5053819;28;20236;-56
2023/04/14 05:03:38;;;;;;;1.83;1.13;;;;;;;;;;5047944;28;20208;-56
2023/04/14 05:06:05;;;;;;;1.33;1.10;;;;;;;;;;5057872;28;20206;-56
2023/04/14 05:08:32;;;;;;;1.77;1.67;;;;;;;;;;5063587;28;20211;-56
2023/04/14 05:11:17;;;;;;;2.40;1.40;;;;;;;;;;5055442;28;20210;-56
2023/04/14 05:13:44;;;;;;;1.20;1.20;;;;;;;;;;5059501;28;20210;-56
2023/04/14 05:16:13;;;;;;;3.07;1.47;;;;;;;;;;5050581;28;20207;-56
2023/04/14 05:18:41;;;;;;;1.70;1.50;;;;;;;;;;5053009;28;20756;-56
2023/04/14 05:21:08;;;;;;;9.73;4.27;;;;;;;;;;5066633;28;20712;-56
2023/04/14 05:23:37;;;;;;;2.37;1.87;;;;;;;;;;5066473;28;20222;-56
2023/04/14 05:26:05;;;;;;;1.60;1.50;;;;;;;;;;5066063;28;20210;-56
2023/04/14 05:28:32;;;;;;;1.63;1.53;;;;;;;;;;5056064;28;20624;-56
2023/04/14 05:31:00;;;;;;;3.00;1.53;;;;;;;;;;5045265;28;20203;-56
2023/04/14 05:33:28;;;;;;;1.90;1.80;;;;;;;;;;5055597;28;20629;-56
2023/04/14 05:35:55;;;;;;;2.47;2.30;;;;;;;;;;5064846;28;20213;-56
2023/04/14 05:38:22;;;;;;;1.60;1.50;;;;;;;;;;5023903;28;1054905;-57
2023/04/14 05:40:50;;;;;;;1.60;1.50;;;;;;;;;;5053327;28;20218;-56
2023/04/14 05:43:17;;;;;;;1.57;1.47;;;;;;;;;;5051311;28;20550;-57
2023/04/14 05:45:45;;;;;;;1.60;1.50;;;;;;;;;;5064222;28;20218;-58
2023/04/14 05:48:13;;;;;;;3.20;1.63;;;;;;;;;;5052536;28;20219;-57
2023/04/14 05:50:41;;;;;;;2.40;1.67;;;;;;;;;;5049337;28;20210;-56
2023/04/14 05:53:10;;;;;;;5.27;2.07;;;;;;;;;;5063131;28;20310;-56
2023/04/14 05:55:37;;;;;;;2.87;2.20;;;;;;;;;;5066263;28;20207;-57
2023/04/14 05:58:04;;;;;;;2.67;1.67;;;;;;;;;;5067029;28;20216;-56
2023/04/14 06:00:31;;;;;;;2.40;2.30;;;;;;;;;;5066118;28;20218;-56
2023/04/14 06:02:58;;;;;;;1.77;1.67;;;;;;;;;;5056548;28;20671;-56
2023/04/14 06:05:25;;;;;;;4.13;2.90;;;;;;;;;;5048858;28;20219;-57
2023/04/14 06:07:54;;;;;;;3.80;2.27;;;;;;;;;;5048750;28;20215;-57
2023/04/14 06:10:21;;;;;;;5.40;2.83;;;;;;;;;;5059124;28;20969;-56
2023/04/14 06:12:48;;;;;;;3.93;3.30;;;;;;;;;;5061793;28;20238;-56
2023/04/14 06:15:15;;;;;;;3.13;2.23;;;;;;;;;;5059442;28;20214;-57
2023/04/14 06:17:42;;;;;;;4.17;2.37;;;;;;;;;;5068729;28;20217;-57
2023/04/14 06:20:10;;;;;;;2.47;2.27;;;;;;;;;;5058775;28;20277;-57
2023/04/14 06:22:39;;;;;;;2.40;2.03;;;;;;;;;;5059800;28;20313;-56
2023/04/14 06:25:09;;;;;;;2.17;1.77;;;;;;;;;;5067519;28;20689;-56
2023/04/14 06:27:36;;;;;;;4.43;2.87;;;;;;;;;;5064562;28;20810;-57
2023/04/14 06:30:04;;;;;;;4.17;3.33;;;;;;;;;;5054110;28;20212;-57
2023/04/14 06:32:31;;;;;;;3.10;2.87;;;;;;;;;;5048200;28;20357;-56
2023/04/14 06:34:58;;;;;;;3.00;2.80;;;;;;;;;;5046028;28;20216;-56
2023/04/14 06:37:25;;;;;;;3.10;2.83;;;;;;;;;;5048049;28;20210;-56
2023/04/14 06:39:52;;;;;;;5.97;3.43;;;;;;;;;;5063356;28;20268;-56
2023/04/14 06:42:20;;;;;;;5.67;3.20;;;;;;;;;;5068028;28;20231;-56
2023/04/14 06:44:47;;;;;;;2.80;2.60;;;;;;;;;;5066885;28;20213;-56
2023/04/14 06:47:18;;;;;;;5.47;3.00;;;;;;;;;;5066047;28;20207;-56
2023/04/14 06:49:45;;;;;;;3.57;3.20;;;;;;;;;;5063904;28;20269;-56
2023/04/14 06:52:12;;;;;;;3.77;3.10;;;;;;;;;;5062205;28;20210;-56
2023/04/14 06:54:41;;;;;;;7.93;3.70;;;;;;;;;;5049501;28;20207;-56
2023/04/14 06:57:08;;;;;;;4.03;3.33;;;;;;;;;;5047420;28;20594;-56
2023/04/14 06:59:36;;;;;;;4.20;3.63;;;;;;;;;;5047349;28;20210;-56
2023/04/14 07:02:03;;;;;;;2.53;2.33;;;;;;;;;;5051914;28;20220;-56
2023/04/14 07:04:30;;;;;;;2.47;2.23;;;;;;;;;;5047498;28;20533;-56
2023/04/14 07:07:00;;;;;;;2.97;2.70;;;;;;;;;;5049001;28;20212;-56
2023/04/14 07:09:27;;;;;;;3.80;3.43;;;;;;;;;;5055645;28;20322;-56
2023/04/14 07:11:54;;;;;;;3.23;3.00;;;;;;;;;;5049818;28;20206;-56
2023/04/14 07:14:21;;;;;;;7.97;2.40;;;;;;;;;;5047387;28;20207;-56
2023/04/14 07:16:50;;;;;;;3.00;2.70;;;;;;;;;;5050609;28;20203;-56
2023/04/14 07:19:17;;;;;;;6.70;2.60;;;;;;;;;;5056131;28;20207;-55
2023/04/14 07:21:45;;;;;;;3.07;2.77;;;;;;;;;;5052605;28;20669;-57
2023/04/14 07:24:12;;;;;;;2.37;2.17;;;;;;;;;;5047908;28;20211;-56
2023/04/14 07:26:39;;;;;;;6.43;3.40;;;;;;;;;;5065184;28;20211;-56
2023/04/14 07:29:06;;;;;;;2.77;2.57;;;;;;;;;;5053542;28;20207;-56
2023/04/14 07:31:34;;;;;;;6.03;3.20;;;;;;;;;;5059449;28;20202;-57
2023/04/14 07:34:02;;;;;;;4.90;3.70;;;;;;;;;;5067115;28;20215;-56
2023/04/14 07:36:30;;;;;;;6.37;3.97;;;;;;;;;;5066829;28;20246;-57
2023/04/14 07:38:57;;;;;;;3.43;3.10;;;;;;;;;;5047001;28;20239;-59
2023/04/14 07:41:25;;;;;;;3.10;2.87;;;;;;;;;;5046135;28;20222;-56
2023/04/14 07:43:54;;;;;;;5.10;3.57;;;;;;;;;;5046626;28;20238;-57
2023/04/14 07:46:21;;;;;;;7.67;3.20;;;;;;;;;;5061275;28;20207;-56
2023/04/14 07:48:48;;;;;;;7.03;4.10;;;;;;;;;;5049574;28;20200;-58
2023/04/14 07:51:17;;;;;;;3.90;3.40;;;;;;;;;;5060953;28;20309;-57
2023/04/14 07:53:44;;;;;;;8.90;3.30;;;;;;;;;;5056585;28;20208;-56
2023/04/14 07:56:11;;;;;;;6.13;3.60;;;;;;;;;;5044616;28;20214;-56
2023/04/14 07:58:39;;;;;;;4.40;3.53;;;;;;;;;;5057967;28;20669;-56
2023/04/14 08:01:06;;;;;;;3.63;3.33;;;;;;;;;;5049348;28;20223;-60
2023/04/14 08:03:35;;;;;;;7.03;3.40;;;;;;;;;;5050117;28;20200;-56
2023/04/14 08:06:02;;;;;;;5.93;3.60;;;;;;;;;;5054000;28;20226;-57
2023/04/14 08:08:30;;;;;;;3.10;2.87;;;;;;;;;;5061847;28;20200;-56
2023/04/14 08:10:57;;;;;;;6.73;2.70;;;;;;;;;;5046857;28;20212;-56
2023/04/14 08:13:24;;;;;;;3.03;2.57;;;;;;;;;;5056963;28;20230;-56
2023/04/14 08:15:51;;;;;;;2.93;2.63;;;;;;;;;;5063424;28;20211;-56
2023/04/14 08:18:19;;;;;;;4.53;3.40;;;;;;;;;;5048516;28;20265;-56
2023/04/14 08:20:46;;;;;;;9.93;3.07;;;;;;;;;;5045246;28;20223;-56
2023/04/14 08:23:13;;;;;;;5.57;3.30;;;;;;;;;;5049705;28;20228;-56
2023/04/14 08:25:42;;;;;;;7.23;3.57;;;;;;;;;;5061396;28;20302;-56
2023/04/14 08:28:09;;;;;;;3.93;2.50;;;;;;;;;;5058653;28;20314;-57
2023/04/14 08:30:36;;;;;;;2.67;2.47;;;;;;;;;;5061266;28;20207;-56
2023/04/14 08:33:03;;;;;;;3.17;2.30;;;;;;;;;;5059980;28;20238;-56
2023/04/14 08:35:30;;;;;;;4.03;2.73;;;;;;;;;;5059858;28;20203;-56
2023/04/14 08:37:59;;;;;;;9.27;2.60;;;;;;;;;;5069159;28;20211;-56
2023/04/14 08:40:29;;;;;;;3.00;2.70;;;;;;;;;;5068567;28;20788;-56
2023/04/14 08:42:58;;;;;;;4.37;2.73;;;;;;;;;;5051510;28;20199;-57
2023/04/14 08:45:25;;;;;;;3.40;3.10;;;;;;;;;;5069878;28;20200;-56
2023/04/14 08:47:54;;;;;;;2.47;2.27;;;;;;;;;;5066953;28;20211;-56
2023/04/14 08:50:23;;;;;;;2.37;2.17;;;;;;;;;;5063521;28;20212;-56
2023/04/14 08:52:52;;;;;;;2.93;2.63;;;;;;;;;;5067814;28;20624;-56
2023/04/14 08:55:19;;;;;;;8.37;2.80;;;;;;;;;;5061502;28;20208;-57
2023/04/14 08:57:46;;;;;;;4.63;2.33;;;;;;;;;;5063861;28;20234;-56
2023/04/14 09:00:15;;;;;;;3.33;2.67;;;;;;;;;;5047802;28;20883;-58
2023/04/14 09:02:43;;;;;;;3.70;2.60;;;;;;;;;;5065756;28;20328;-56
2023/04/14 09:05:10;;;;;;;4.33;2.90;;;;;;;;;;5054494;28;20745;-57
2023/04/14 09:07:37;;;;;;;2.97;2.13;;;;;;;;;;5048815;28;20716;-56
2023/04/14 09:10:05;;;;;;;4.50;2.20;;;;;;;;;;5053284;28;20674;-56
2023/04/14 09:12:32;;;;;;;3.37;2.60;;;;;;;;;;5063976;28;20214;-56
2023/04/14 09:15:00;;;;;;;2.00;1.83;;;;;;;;;;5053272;28;20693;-56
2023/04/14 09:17:29;;;;;;;4.23;3.07;;;;;;;;;;5064630;28;20214;-56
2023/04/14 09:19:56;;;;;;;51.70;20.90;;;;;;;;;;5069717;28;20685;-56
2023/04/14 09:22:23;;;;;;;42.40;17.20;;;;;;;;;;5069498;28;20317;-57
2023/04/14 09:24:51;;;;;;;5.67;2.50;;;;;;;;;;5056802;28;20681;-57
2023/04/14 09:27:18;;;;;;;4.93;2.50;;;;;;;;;;5068654;28;20635;-65
2023/04/14 09:29:45;;;;;;;2.57;2.07;;;;;;;;;;5067302;28;20206;-57
2023/04/14 09:32:12;;;;;;;1.95;1.85;;;;;;;;;;5069310;28;20689;-57
2023/04/14 09:34:51;;;;;;;1.77;1.67;;;;;;;;;;5069455;28;20214;-59
2023/04/14 09:37:19;;;;;;;4.13;2.17;;;;;;;;;;5049839;28;20857;-63
2023/04/14 09:39:49;;;;;;;4.05;1.80;;;;;;;;;;5051432;28;20483;-57
2023/04/14 09:42:17;;;;;;;1.88;1.55;;;;;;;;;;5057849;28;20231;-57
2023/04/14 09:44:53;;;;;;;2.15;1.60;;;;;;;;;;5066120;28;20241;-57
2023/04/14 09:47:21;;;;;;;4.43;2.00;;;;;;;;;;5067436;28;20198;-57
2023/04/14 09:49:57;;;;;;;2.20;1.73;;;;;;;;;;5067003;28;20428;-57
2023/04/14 09:52:35;;;;;;;2.10;2.00;;;;;;;;;;5067442;28;20202;-57
2023/04/14 09:55:05;;;;;;;1.33;1.23;;;;;;;;;;5068387;28;20681;-56
2023/04/14 09:57:33;;;;;;;2.00;1.63;;;;;;;;;;5068556;28;20604;-56
2023/04/14 10:00:00;;;;;;;3.22;2.05;;;;;;;;;;5048157;28;20204;-56
2023/04/14 10:02:27;;;;;;;1.38;1.38;;;;;;;;;;5048437;28;20227;-56
2023/04/14 10:05:05;;;;;;;3.35;1.70;;;;;;;;;;5047184;28;20690;-56
2023/04/14 10:07:32;;;;;;;1.42;1.33;;;;;;;;;;5048094;28;20294;-56
2023/04/14 10:10:06;;;;;;;2.53;1.30;;;;;;;;;;5048041;28;20200;-56
2023/04/14 10:12:33;;;;;;;1.08;0.90;;;;;;;;;;5047973;28;20231;-56
2023/04/14 10:15:00;;;;;;;1.20;1.05;;;;;;;;;;5046176;28;20697;-56
2023/04/14 10:17:27;;;;;;;0.90;0.80;;;;;;;;;;5048234;28;20215;-56
2023/04/14 10:19:54;;;;;;;2.03;1.20;;;;;;;;;;5048219;28;20663;-56
2023/04/14 10:22:26;;;;;;;3.45;1.15;;;;;;;;;;5044285;28;20232;-56
2023/04/14 10:24:53;;;;;;;4.55;1.00;;;;;;;;;;5059973;28;20723;-56
2023/04/14 10:27:21;;;;;;;1.73;1.02;;;;;;;;;;5046896;28;20570;-56
2023/04/14 10:29:48;;;;;;;1.10;1.00;;;;;;;;;;5052344;28;20208;-56
2023/04/14 10:32:16;;;;;;;3.13;0.90;;;;;;;;;;5052580;28;20191;-56
2023/04/14 10:34:54;;;;;;;1.42;0.88;;;;;;;;;;5064589;28;20214;-56
2023/04/14 10:37:23;;;;;;;3.00;0.88;;;;;;;;;;5048315;28;20269;-56
2023/04/14 10:39:55;;;;;;;2.10;0.77;;;;;;;;;;5065348;28;20238;-56
2023/04/14 10:42:23;;;;;;;1.20;0.73;;;;;;;;;;5067491;28;20222;-56
2023/04/14 10:45:03;;;;;;;2.00;0.90;;;;;;;;;;5047798;28;20211;-56
2023/04/14 10:47:30;;;;;;;3.15;0.55;;;;;;;;;;5066165;28;20206;-56
2023/04/14 10:50:03;;;;;;;1.33;0.68;;;;;;;;;;5064057;28;20214;-56
2023/04/14 10:52:34;;;;;;;2.92;1.02;;;;;;;;;;5064359;28;20196;-56
2023/04/14 10:55:06;;;;;;;2.15;0.98;;;;;;;;;;5066986;28;20214;-55
2023/04/14 10:57:36;;;;;;;3.50;1.15;;;;;;;;;;5058634;28;20715;-56
2023/04/14 11:00:21;;;;;;;1.05;0.95;;;;;;;;;;5062644;28;20221;-56
2023/04/14 11:02:54;;;;;;;3.88;1.00;;;;;;;;;;5057951;28;20647;-56
2023/04/14 11:05:22;;;;;;;2.25;0.80;;;;;;;;;;5047276;28;20215;-56
2023/04/14 11:07:54;;;;;;;0.80;0.57;;;;;;;;;;5063601;28;20198;-56
2023/04/14 11:10:34;;;;;;;1.00;0.80;;;;;;;;;;5067535;28;20308;-57
2023/04/14 11:13:02;;;;;;;0.95;0.60;;;;;;;;;;5059254;28;20204;-56
2023/04/14 11:15:51;;;;;;;1.05;0.80;;;;;;;;;;5059000;28;20207;-56
2023/04/14 11:18:20;;;;;;;2.10;0.82;;;;;;;;;;5063402;28;20214;-56
2023/04/14 11:20:47;;;;;;;2.55;1.10;;;;;;;;;;5047645;28;20215;-56
2023/04/14 11:23:16;;;;;;;6.80;2.15;;;;;;;;;;5067383;28;20235;-56
2023/04/14 11:25:44;;;;;;;4.15;0.80;;;;;;;;;;5063058;28;20296;-57
2023/04/14 11:28:11;;;;;;;0.60;0.60;;;;;;;;;;5063614;28;20210;-57
2023/04/14 11:30:41;;;;;;;1.45;0.65;;;;;;;;;;5050522;28;20210;-57
2023/04/14 11:33:08;;;;;;;4.15;1.20;;;;;;;;;;5048538;28;20194;-57
2023/04/14 11:35:35;;;;;;;4.10;0.82;;;;;;;;;;5058500;28;20203;-57
2023/04/14 11:38:03;;;;;;;0.80;0.77;;;;;;;;;;5067336;28;20217;-57
2023/04/14 11:40:34;;;;;;;1.95;0.85;;;;;;;;;;5050821;28;20263;-57
2023/04/14 11:43:01;;;;;;;2.20;0.75;;;;;;;;;;5047064;28;20242;-57
2023/04/14 11:45:29;;;;;;;0.93;0.52;;;;;;;;;;5060681;28;20206;-57
2023/04/14 11:48:00;;;;;;;0.70;0.60;;;;;;;;;;5065197;28;20215;-57
2023/04/14 11:50:27;;;;;;;0.80;0.57;;;;;;;;;;5050834;28;20204;-57
2023/04/14 11:52:58;;;;;;;4.43;1.13;;;;;;;;;;5058286;28;20222;-57
2023/04/14 11:55:25;;;;;;;1.95;0.98;;;;;;;;;;5049183;28;20207;-57
2023/04/14 11:57:53;;;;;;;1.00;0.70;;;;;;;;;;5047655;28;20286;-57
2023/04/14 12:00:21;;;;;;;1.40;0.52;;;;;;;;;;5052764;28;20577;-56
2023/04/14 12:02:48;;;;;;;1.52;0.50;;;;;;;;;;5064309;28;20234;-57
2023/04/14 12:05:24;;;;;;;0.80;0.70;;;;;;;;;;5050858;28;20291;-57
2023/04/14 12:07:51;;;;;;;4.18;0.95;;;;;;;;;;5047494;28;20238;-57
2023/04/14 12:10:18;;;;;;;1.98;0.68;;;;;;;;;;5050135;28;20265;-57
2023/04/14 12:12:45;;;;;;;5.43;2.28;;;;;;;;;;5050801;28;20234;-57
2023/04/14 12:15:14;;;;;;;0.47;0.47;;;;;;;;;;5050596;28;20210;-55
2023/04/14 12:17:41;;;;;;;2.85;0.55;;;;;;;;;;5051822;28;20215;-57
2023/04/14 12:20:14;;;;;;;0.60;0.60;;;;;;;;;;5050656;28;20207;-57
2023/04/14 12:22:41;;;;;;;1.40;0.65;;;;;;;;;;5068824;28;20420;-57
2023/04/14 12:25:11;;;;;;;1.50;0.40;;;;;;;;;;5069166;28;20242;-57
2023/04/14 12:27:38;;;;;;;0.95;0.30;;;;;;;;;;5068386;28;20678;-57
2023/04/14 12:30:05;;;;;;;2.42;0.40;;;;;;;;;;5070291;28;20207;-57
2023/04/14 12:32:40;;;;;;;0.57;0.57;;;;;;;;;;5056806;28;20693;-57
2023/04/14 12:35:07;;;;;;;1.65;0.65;;;;;;;;;;5070169;28;20222;-57
2023/04/14 12:37:34;;;;;;;0.50;0.43;;;;;;;;;;5068290;28;20210;-57
2023/04/14 12:40:05;;;;;;;1.95;0.32;;;;;;;;;;5070012;28;20670;-57
2023/04/14 12:42:43;;;;;;;1.42;0.57;;;;;;;;;;5057359;28;20237;-57
2023/04/14 12:45:11;;;;;;;1.02;0.68;;;;;;;;;;5051074;28;20714;-57
2023/04/14 12:47:39;;;;;;;0.40;0.40;;;;;;;;;;5062861;28;20203;-57
2023/04/14 12:50:21;;;;;;;0.50;0.50;;;;;;;;;;5051028;28;20208;-57
2023/04/14 12:52:48;;;;;;;0.85;0.40;;;;;;;;;;5058152;28;20206;-57
2023/04/14 12:55:19;;;;;;;0.65;0.32;;;;;;;;;;5061471;28;20214;-57
2023/04/14 12:57:46;;;;;;;0.40;0.40;;;;;;;;;;5060670;28;20684;-57
2023/04/14 13:00:14;;;;;;;4.30;0.77;;;;;;;;;;5059695;28;20211;-57
2023/04/14 13:02:43;;;;;;;0.35;0.35;;;;;;;;;;5069817;28;20230;-57
2023/04/14 13:05:10;;;;;;;3.33;1.50;;;;;;;;;;5057781;28;20214;-57
2023/04/14 13:07:37;;;;;;;0.60;0.60;;;;;;;;;;5058711;28;20210;-57
2023/04/14 13:10:05;;;;;;;1.40;0.50;;;;;;;;;;5067350;28;20261;-57
2023/04/14 13:12:32;;;;;;;0.85;0.30;;;;;;;;;;5058984;28;20346;-57
2023/04/14 13:14:59;;;;;;;1.75;0.38;;;;;;;;;;5060965;28;20226;-57
2023/04/14 13:17:26;;;;;;;0.60;0.45;;;;;;;;;;5068483;28;20207;-57
2023/04/14 13:19:55;;;;;;;2.40;0.30;;;;;;;;;;5069203;28;20260;-57
2023/04/14 13:22:22;;;;;;;0.70;0.47;;;;;;;;;;5056503;28;20239;-56
2023/04/14 13:24:50;;;;;;;0.52;0.20;;;;;;;;;;5066975;28;20199;-57
2023/04/14 13:27:17;;;;;;;0.57;0.40;;;;;;;;;;5068183;28;20816;-57
2023/04/14 13:29:45;;;;;;;1.55;0.40;;;;;;;;;;5069784;28;20210;-57
2023/04/14 13:32:12;;;;;;;1.83;0.60;;;;;;;;;;5053321;28;20310;-58
2023/04/14 13:34:40;;;;;;;0.73;0.43;;;;;;;;;;5054523;28;20797;-57
2023/04/14 13:37:08;;;;;;;0.90;0.60;;;;;;;;;;5065623;28;20218;-57
2023/04/14 13:39:35;;;;;;;0.32;0.32;;;;;;;;;;5052620;28;20230;-59
2023/04/14 13:42:02;;;;;;;0.73;0.40;;;;;;;;;;5047508;28;20627;-57
2023/04/14 13:44:31;;;;;;;0.50;0.50;;;;;;;;;;5049733;28;20227;-57
2023/04/14 13:46:58;;;;;;;0.30;0.30;;;;;;;;;;5057183;28;20434;-57
2023/04/14 13:49:26;;;;;;;0.45;0.45;;;;;;;;;;5066707;28;20214;-57
2023/04/14 13:51:53;;;;;;;0.52;0.40;;;;;;;;;;5068541;28;20218;-57
2023/04/14 13:54:21;;;;;;;0.65;0.60;;;;;;;;;;5068604;28;20218;-57
2023/04/14 13:56:48;;;;;;;0.32;0.32;;;;;;;;;;5067978;28;20207;-57
2023/04/14 13:59:16;;;;;;;0.73;0.40;;;;;;;;;;5068510;28;20218;-57
2023/04/14 14:01:43;;;;;;;1.85;0.50;;;;;;;;;;5068309;28;20215;-57
2023/04/14 14:04:10;;;;;;;1.45;0.38;;;;;;;;;;5066592;28;20243;-57
2023/04/14 14:06:37;;;;;;;0.30;0.30;;;;;;;;;;5062621;28;20210;-58
2023/04/14 14:09:04;;;;;;;4.22;0.63;;;;;;;;;;5065568;28;20214;-56
2023/04/14 14:11:32;;;;;;;0.32;0.32;;;;;;;;;;5054992;28;20215;-55
2023/04/14 14:13:59;;;;;;;1.42;0.50;;;;;;;;;;5048582;28;20203;-56
2023/04/14 14:16:27;;;;;;;0.40;0.40;;;;;;;;;;5056435;28;20220;-58
2023/04/14 14:18:55;;;;;;;0.60;0.32;;;;;;;;;;5069781;28;20213;-58
2023/04/14 14:21:22;;;;;;;0.47;0.32;;;;;;;;;;5067914;28;20513;-57
2023/04/14 14:23:49;;;;;;;3.40;0.60;;;;;;;;;;5061598;28;20227;-58
2023/04/14 14:26:16;;;;;;;0.93;0.55;;;;;;;;;;5056478;28;20214;-57
2023/04/14 14:28:44;;;;;;;0.50;0.50;;;;;;;;;;5067851;28;20218;-57
2023/04/14 14:31:11;;;;;;;1.13;0.35;;;;;;;;;;5067409;28;20871;-57
2023/04/14 14:33:39;;;;;;;1.13;0.50;;;;;;;;;;5066363;28;20202;-58
2023/04/14 14:36:06;;;;;;;0.80;0.40;;;;;;;;;;5067760;28;20218;-58
2023/04/14 14:38:33;;;;;;;1.17;0.50;;;;;;;;;;5065974;28;20194;-58
2023/04/14 14:41:00;;;;;;;0.40;0.40;;;;;;;;;;5067847;28;20628;-58
2023/04/14 14:43:27;;;;;;;2.47;0.32;;;;;;;;;;5064259;28;20677;-59
2023/04/14 14:45:55;;;;;;;1.33;0.30;;;;;;;;;;5066164;28;20215;-56
2023/04/14 14:48:22;;;;;;;0.40;0.38;;;;;;;;;;5064878;28;20238;-56
2023/04/14 14:50:49;;;;;;;1.15;0.85;;;;;;;;;;5048240;28;20200;-56